sensor_id;sensor_type;location;lat;lon;timestamp;pressure;altitude;pressure_sealevel;temperature;humidity
5879;BME280;2965;42.640;23.370;2023-11-19T04:01:45;94519.66;;;2.47;100.00
5879;BME280;2965;42.640;23.370;2023-11-19T04:04:10;94518.03;;;2.46;100.00
5879;BME280;2965;42.640;23.370;2023-11-19T04:06:36;94512.88;;;2.46;100.00
5879;BME280;2965;42.640;23.370;2023-11-19T04:09:01;94519.66;;;2.47;100.00
5879;BME280;2965;42.640;23.370;2023-11-19T04:11:27;94512.59;;;2.49;100.00
5879;BME280;2965;42.640;23.370;2023-11-19T04:13:53;94520.47;;;2.47;100.00
5879;BME280;2965;42.640;23.370;2023-11-19T04:16:18;94531.09;;;2.44;100.00
5879;BME280;2965;42.640;23.370;2023-11-19T04:18:43;94536.81;;;2.48;100.00
5879;BME280;2965;42.640;23.370;2023-11-19T04:21:09;94521.31;;;2.48;100.00
5879;BME280;2965;42.640;23.370;2023-11-19T04:23:34;94523.19;;;2.46;100.00
5879;BME280;2965;42.640;23.370;2023-11-19T04:26:03;94510.97;;;2.48;100.00
5879;BME280;2965;42.640;23.370;2023-11-19T04:28:30;94515.44;;;2.46;100.00
5879;BME280;2965;42.640;23.370;2023-11-19T04:30:55;94519.00;;;2.45;100.00
5879;BME280;2965;42.640;23.370;2023-11-19T04:33:21;94516.41;;;2.45;100.00
5879;BME280;2965;42.640;23.370;2023-11-19T04:35:46;94545.47;;;2.47;100.00
5879;BME280;2965;42.640;23.370;2023-11-19T04:38:12;94524.81;;;2.47;100.00
5879;BME280;2965;42.640;23.370;2023-11-19T04:40:37;94540.88;;;2.50;100.00
5879;BME280;2965;42.640;23.370;2023-11-19T04:43:02;94527.00;;;2.51;100.00
5879;BME280;2965;42.640;23.370;2023-11-19T04:45:28;94522.94;;;2.49;100.00
5879;BME280;2965;42.640;23.370;2023-11-19T04:47:53;94536.53;;;2.51;100.00
5879;BME280;2965;42.640;23.370;2023-11-19T04:50:19;94533.28;;;2.49;100.00
5879;BME280;2965;42.640;23.370;2023-11-19T04:52:44;94536.09;;;2.46;100.00
5879;BME280;2965;42.640;23.370;2023-11-19T04:55:10;94537.06;;;2.45;100.00
5879;BME280;2965;42.640;23.370;2023-11-19T04:57:37;94539.22;;;2.40;100.00
5879;BME280;2965;42.640;23.370;2023-11-19T05:00:03;94539.75;;;2.43;100.00
5879;BME280;2965;42.640;23.370;2023-11-19T05:02:30;94538.03;;;2.44;100.00
5879;BME280;2965;42.640;23.370;2023-11-19T05:04:55;94541.13;;;2.47;100.00
5879;BME280;2965;42.640;23.370;2023-11-19T05:07:21;94547.38;;;2.45;100.00
5879;BME280;2965;42.640;23.370;2023-11-19T05:09:46;94546.03;;;2.41;100.00
5879;BME280;2965;42.640;23.370;2023-11-19T05:12:11;94556.09;;;2.44;100.00
5879;BME280;2965;42.640;23.370;2023-11-19T05:14:37;94565.72;;;2.42;100.00
5879;BME280;2965;42.640;23.370;2023-11-19T05:17:03;94558.38;;;2.37;100.00
5879;BME280;2965;42.640;23.370;2023-11-19T05:19:32;94558.13;;;2.40;100.00
5879;BME280;2965;42.640;23.370;2023-11-19T05:21:57;94555.41;;;2.42;100.00
5879;BME280;2965;42.640;23.370;2023-11-19T05:24:22;94574.84;;;2.46;100.00
5879;BME280;2965;42.640;23.370;2023-11-19T05:26:48;94551.59;;;2.46;100.00
5879;BME280;2965;42.640;23.370;2023-11-19T05:29:16;94552.00;;;2.41;100.00
5879;BME280;2965;42.640;23.370;2023-11-19T05:31:41;94557.03;;;2.43;100.00
5879;BME280;2965;42.640;23.370;2023-11-19T05:34:06;94551.59;;;2.46;100.00
5879;BME280;2965;42.640;23.370;2023-11-19T05:36:32;94565.56;;;2.43;100.00
5879;BME280;2965;42.640;23.370;2023-11-19T05:38:58;94583.28;;;2.48;100.00
5879;BME280;2965;42.640;23.370;2023-11-19T05:41:23;94586.78;;;2.47;100.00
5879;BME280;2965;42.640;23.370;2023-11-19T05:43:49;94575.66;;;2.46;100.00
5879;BME280;2965;42.640;23.370;2023-11-19T05:46:14;94574.84;;;2.46;100.00
5879;BME280;2965;42.640;23.370;2023-11-19T05:48:40;94575.09;;;2.43;100.00
5879;BME280;2965;42.640;23.370;2023-11-19T05:51:05;94570.88;;;2.42;100.00
5879;BME280;2965;42.640;23.370;2023-11-19T05:53:31;94571.59;;;2.44;100.00
5879;BME280;2965;42.640;23.370;2023-11-19T05:55:57;94564.09;;;2.41;100.00
5879;BME280;2965;42.640;23.370;2023-11-19T05:58:26;94571.13;;;2.39;100.00
5879;BME280;2965;42.640;23.370;2023-11-19T06:00:54;94559.31;;;2.36;100.00
5879;BME280;2965;42.640;23.370;2023-11-19T06:03:19;94563.13;;;2.32;100.00
5879;BME280;2965;42.640;23.370;2023-11-19T06:05:46;94576.19;;;2.31;100.00
5879;BME280;2965;42.640;23.370;2023-11-19T06:08:12;94598.69;;;2.28;100.00
5879;BME280;2965;42.640;23.370;2023-11-19T06:10:42;94594.91;;;2.33;100.00
5879;BME280;2965;42.640;23.370;2023-11-19T06:13:07;94602.66;;;2.33;100.00
5879;BME280;2965;42.640;23.370;2023-11-19T06:15:35;94595.16;;;2.30;100.00
5879;BME280;2965;42.640;23.370;2023-11-19T06:18:01;94588.13;;;2.32;100.00
5879;BME280;2965;42.640;23.370;2023-11-19T06:20:32;94586.22;;;2.34;100.00
5879;BME280;2965;42.640;23.370;2023-11-19T06:22:57;94599.81;;;2.36;100.00
5879;BME280;2965;42.640;23.370;2023-11-19T06:25:23;94574.50;;;2.30;100.00
5879;BME280;2965;42.640;23.370;2023-11-19T06:27:52;94579.00;;;2.27;100.00
5879;BME280;2965;42.640;23.370;2023-11-19T06:30:18;94579.97;;;2.26;100.00
5879;BME280;2965;42.640;23.370;2023-11-19T06:32:44;94596.53;;;2.34;100.00
5879;BME280;2965;42.640;23.370;2023-11-19T06:35:09;94605.78;;;2.26;100.00
5879;BME280;2965;42.640;23.370;2023-11-19T06:37:37;94574.50;;;2.30;100.00
5879;BME280;2965;42.640;23.370;2023-11-19T06:40:04;94585.66;;;2.30;100.00
5879;BME280;2965;42.640;23.370;2023-11-19T06:42:30;94594.63;;;2.26;100.00
5879;BME280;2965;42.640;23.370;2023-11-19T06:44:55;94593.03;;;2.35;100.00
5879;BME280;2965;42.640;23.370;2023-11-19T06:47:24;94579.16;;;2.36;100.00
5879;BME280;2965;42.640;23.370;2023-11-19T06:49:50;94603.06;;;2.38;100.00
5879;BME280;2965;42.640;23.370;2023-11-19T06:52:16;94605.00;;;2.36;100.00
5879;BME280;2965;42.640;23.370;2023-11-19T06:54:41;94589.75;;;2.33;100.00
5879;BME280;2965;42.640;23.370;2023-11-19T06:57:06;94597.91;;;2.38;100.00
5879;BME280;2965;42.640;23.370;2023-11-19T06:59:34;94610.41;;;2.33;100.00
5879;BME280;2965;42.640;23.370;2023-11-19T07:01:59;94617.56;;;2.19;100.00
5879;BME280;2965;42.640;23.370;2023-11-19T07:04:25;94616.59;;;2.20;100.00
5879;BME280;2965;42.640;23.370;2023-11-19T07:06:50;94619.88;;;2.22;100.00
5879;BME280;2965;42.640;23.370;2023-11-19T07:09:18;94600.63;;;2.26;100.00
5879;BME280;2965;42.640;23.370;2023-11-19T07:11:44;94611.75;;;2.27;100.00
5879;BME280;2965;42.640;23.370;2023-11-19T07:14:10;94607.16;;;2.31;100.00
5879;BME280;2965;42.640;23.370;2023-11-19T07:16:37;94638.56;;;2.36;100.00
5879;BME280;2965;42.640;23.370;2023-11-19T07:19:03;94628.06;;;2.27;100.00
5879;BME280;2965;42.640;23.370;2023-11-19T07:21:30;94633.78;;;2.31;100.00
5879;BME280;2965;42.640;23.370;2023-11-19T07:23:56;94637.59;;;2.37;100.00
5879;BME280;2965;42.640;23.370;2023-11-19T07:26:22;94642.75;;;2.37;100.00
5879;BME280;2965;42.640;23.370;2023-11-19T07:28:48;94631.19;;;2.31;100.00
5879;BME280;2965;42.640;23.370;2023-11-19T07:31:14;94642.75;;;2.37;100.00
5879;BME280;2965;42.640;23.370;2023-11-19T07:33:39;94664.78;;;2.41;100.00
5879;BME280;2965;42.640;23.370;2023-11-19T07:36:08;94649.06;;;2.44;100.00
5879;BME280;2965;42.640;23.370;2023-11-19T07:38:34;94677.13;;;2.37;100.00
5879;BME280;2965;42.640;23.370;2023-11-19T07:40:59;94658.25;;;2.37;100.00
5879;BME280;2965;42.640;23.370;2023-11-19T07:43:24;94663.94;;;2.31;100.00
5879;BME280;2965;42.640;23.370;2023-11-19T07:45:50;94653.63;;;2.31;100.00
5879;BME280;2965;42.640;23.370;2023-11-19T07:48:15;94671.41;;;2.34;100.00
5879;BME280;2965;42.640;23.370;2023-11-19T07:50:41;94654.31;;;2.42;100.00
5879;BME280;2965;42.640;23.370;2023-11-19T07:53:09;94652.88;;;2.49;100.00
5879;BME280;2965;42.640;23.370;2023-11-19T07:55:34;94678.13;;;2.46;100.00
5879;BME280;2965;42.640;23.370;2023-11-19T07:58:00;94680.28;;;2.41;100.00
5879;BME280;2965;42.640;23.370;2023-11-19T08:00:26;94666.66;;;2.39;100.00
5879;BME280;2965;42.640;23.370;2023-11-19T08:02:52;94663.16;;;2.40;100.00
5879;BME280;2965;42.640;23.370;2023-11-19T08:05:17;94674.56;;;2.37;100.00
5879;BME280;2965;42.640;23.370;2023-11-19T08:07:42;94674.31;;;2.40;100.00
5879;BME280;2965;42.640;23.370;2023-11-19T08:10:08;94681.91;;;2.42;100.00
5879;BME280;2965;42.640;23.370;2023-11-19T08:12:35;94680.03;;;2.44;100.00
5879;BME280;2965;42.640;23.370;2023-11-19T08:15:02;94667.81;;;2.56;100.00
5879;BME280;2965;42.640;23.370;2023-11-19T08:17:27;94680.78;;;2.65;100.00
5879;BME280;2965;42.640;23.370;2023-11-19T08:19:53;94680.31;;;2.50;100.00
5879;BME280;2965;42.640;23.370;2023-11-19T08:22:18;94684.91;;;2.47;100.00
5879;BME280;2965;42.640;23.370;2023-11-19T08:24:44;94699.31;;;2.40;100.00
5879;BME280;2965;42.640;23.370;2023-11-19T08:27:09;94685.22;;;2.53;100.00
5879;BME280;2965;42.640;23.370;2023-11-19T08:29:34;94682.69;;;2.63;100.00
5879;BME280;2965;42.640;23.370;2023-11-19T08:32:01;94694.22;;;2.59;100.00
5879;BME280;2965;42.640;23.370;2023-11-19T08:34:27;94695.59;;;2.63;100.00
5879;BME280;2965;42.640;23.370;2023-11-19T08:36:52;94690.19;;;2.66;100.00
5879;BME280;2965;42.640;23.370;2023-11-19T08:39:19;94687.19;;;2.61;100.00
5879;BME280;2965;42.640;23.370;2023-11-19T08:41:49;94695.63;;;2.73;100.00
5879;BME280;2965;42.640;23.370;2023-11-19T08:44:15;94692.47;;;2.69;100.00
5879;BME280;2965;42.640;23.370;2023-11-19T08:46:50;94703.88;;;2.57;100.00
5879;BME280;2965;42.640;23.370;2023-11-19T08:49:16;94712.22;;;2.70;100.00
5879;BME280;2965;42.640;23.370;2023-11-19T08:51:42;94696.75;;;2.80;100.00
5879;BME280;2965;42.640;23.370;2023-11-19T08:54:08;94687.97;;;3.02;100.00
5879;BME280;2965;42.640;23.370;2023-11-19T08:56:33;94693.84;;;3.23;100.00
5879;BME280;2965;42.640;23.370;2023-11-19T08:59:00;94710.69;;;3.27;100.00
5879;BME280;2965;42.640;23.370;2023-11-19T09:01:26;94711.81;;;3.35;100.00
5879;BME280;2965;42.640;23.370;2023-11-19T09:03:51;94703.25;;;3.44;100.00
5879;BME280;2965;42.640;23.370;2023-11-19T09:06:17;94694.56;;;3.64;100.00
5879;BME280;2965;42.640;23.370;2023-11-19T09:08:43;94683.25;;;3.65;100.00
5879;BME280;2965;42.640;23.370;2023-11-19T09:11:08;94692.75;;;3.36;100.00
5879;BME280;2965;42.640;23.370;2023-11-19T09:13:35;94682.69;;;3.42;100.00
5879;BME280;2965;42.640;23.370;2023-11-19T09:16:00;94670.59;;;3.33;100.00
5879;BME280;2965;42.640;23.370;2023-11-19T09:18:31;94656.81;;;3.13;100.00
5879;BME280;2965;42.640;23.370;2023-11-19T09:20:57;94672.34;;;3.33;100.00
5879;BME280;2965;42.640;23.370;2023-11-19T09:23:23;94677.38;;;3.24;100.00
5879;BME280;2965;42.640;23.370;2023-11-19T09:25:50;94678.59;;;3.40;100.00
5879;BME280;2965;42.640;23.370;2023-11-19T09:28:15;94672.88;;;3.36;100.00
5879;BME280;2965;42.640;23.370;2023-11-19T09:30:40;94686.34;;;3.49;100.00
5879;BME280;2965;42.640;23.370;2023-11-19T09:33:06;94689.22;;;3.75;100.00
5879;BME280;2965;42.640;23.370;2023-11-19T09:35:31;94678.56;;;4.08;100.00
5879;BME280;2965;42.640;23.370;2023-11-19T09:37:57;94655.66;;;4.50;100.00
5879;BME280;2965;42.640;23.370;2023-11-19T09:40:23;94668.00;;;4.28;100.00
5879;BME280;2965;42.640;23.370;2023-11-19T09:42:48;94644.88;;;4.17;100.00
5879;BME280;2965;42.640;23.370;2023-11-19T09:45:16;94638.09;;;4.44;100.00
5879;BME280;2965;42.640;23.370;2023-11-19T09:47:46;94644.06;;;4.54;99.70
5879;BME280;2965;42.640;23.370;2023-11-19T09:50:19;94650.69;;;4.29;100.00
5879;BME280;2965;42.640;23.370;2023-11-19T09:52:45;94626.50;;;4.75;98.59
5879;BME280;2965;42.640;23.370;2023-11-19T09:55:11;94629.94;;;4.94;98.53
5879;BME280;2965;42.640;23.370;2023-11-19T09:57:38;94605.44;;;5.06;97.72
5879;BME280;2965;42.640;23.370;2023-11-19T10:00:05;94607.38;;;4.76;96.07
5879;BME280;2965;42.640;23.370;2023-11-19T10:02:33;94607.19;;;4.60;98.93
5879;BME280;2965;42.640;23.370;2023-11-19T10:05:04;94594.06;;;4.71;99.08
5879;BME280;2965;42.640;23.370;2023-11-19T10:07:31;94593.00;;;4.64;98.74
5879;BME280;2965;42.640;23.370;2023-11-19T10:09:59;94588.72;;;4.73;97.53
5879;BME280;2965;42.640;23.370;2023-11-19T10:12:26;94594.66;;;4.65;96.69
5879;BME280;2965;42.640;23.370;2023-11-19T10:14:53;94588.13;;;4.61;94.43
5879;BME280;2965;42.640;23.370;2023-11-19T10:17:21;94565.47;;;4.81;96.42
5879;BME280;2965;42.640;23.370;2023-11-19T10:19:46;94574.38;;;4.78;99.12
5879;BME280;2965;42.640;23.370;2023-11-19T10:22:12;94593.69;;;4.84;94.06
5879;BME280;2965;42.640;23.370;2023-11-19T10:24:39;94609.03;;;5.13;97.52
5879;BME280;2965;42.640;23.370;2023-11-19T10:27:09;94611.19;;;5.00;96.09
5879;BME280;2965;42.640;23.370;2023-11-19T10:29:37;94623.78;;;4.95;93.18
5879;BME280;2965;42.640;23.370;2023-11-19T10:32:03;94609.38;;;5.10;90.11
5879;BME280;2965;42.640;23.370;2023-11-19T10:34:29;94593.94;;;5.26;92.68
5879;BME280;2965;42.640;23.370;2023-11-19T10:36:55;94589.94;;;5.50;89.80
5879;BME280;2965;42.640;23.370;2023-11-19T10:39:21;94580.50;;;5.49;90.07
5879;BME280;2965;42.640;23.370;2023-11-19T10:41:46;94590.72;;;5.68;87.19
5879;BME280;2965;42.640;23.370;2023-11-19T10:44:12;94593.69;;;5.55;85.60
5879;BME280;2965;42.640;23.370;2023-11-19T10:46:41;94599.09;;;5.62;85.93
5879;BME280;2965;42.640;23.370;2023-11-19T10:49:08;94600.91;;;5.08;85.39
5879;BME280;2965;42.640;23.370;2023-11-19T10:51:34;94598.22;;;5.36;84.50
5879;BME280;2965;42.640;23.370;2023-11-19T10:54:05;94604.69;;;5.75;83.51
5879;BME280;2965;42.640;23.370;2023-11-19T10:56:32;94586.81;;;5.90;82.38
5879;BME280;2965;42.640;23.370;2023-11-19T10:58:59;94593.88;;;5.98;82.39
5879;BME280;2965;42.640;23.370;2023-11-19T11:01:29;94608.13;;;5.94;82.37
5879;BME280;2965;42.640;23.370;2023-11-19T11:03:59;94605.06;;;6.24;80.04
5879;BME280;2965;42.640;23.370;2023-11-19T11:06:27;94610.66;;;6.38;79.14
5879;BME280;2965;42.640;23.370;2023-11-19T11:08:54;94603.63;;;6.30;78.31
5879;BME280;2965;42.640;23.370;2023-11-19T11:11:20;94592.19;;;6.57;79.48
5879;BME280;2965;42.640;23.370;2023-11-19T11:13:49;94577.16;;;6.77;82.15
5879;BME280;2965;42.640;23.370;2023-11-19T11:16:18;94575.28;;;7.20;81.66
5879;BME280;2965;42.640;23.370;2023-11-19T11:18:45;94579.69;;;7.27;83.58
5879;BME280;2965;42.640;23.370;2023-11-19T11:21:15;94567.34;;;7.46;74.79
5879;BME280;2965;42.640;23.370;2023-11-19T11:34:53;94569.22;;;6.87;72.72
5879;BME280;2965;42.640;23.370;2023-11-19T11:37:32;94572.81;;;7.02;73.79
5879;BME280;2965;42.640;23.370;2023-11-19T11:39:58;94573.97;;;7.16;74.50
5879;BME280;2965;42.640;23.370;2023-11-19T11:45:05;94555.31;;;7.53;73.69
5879;BME280;2965;42.640;23.370;2023-11-19T11:48:04;94546.44;;;8.03;71.84
5879;BME280;2965;42.640;23.370;2023-11-19T11:50:30;94539.34;;;7.80;70.38
5879;BME280;2965;42.640;23.370;2023-11-19T11:55:51;94560.16;;;7.56;73.85
5879;BME280;2965;42.640;23.370;2023-11-19T11:58:18;94550.25;;;7.59;73.60
5879;BME280;2965;42.640;23.370;2023-11-19T12:00:43;94557.25;;;7.67;69.70
5879;BME280;2965;42.640;23.370;2023-11-19T12:03:11;94563.41;;;7.74;71.16
5879;BME280;2965;42.640;23.370;2023-11-19T12:05:44;94565.88;;;8.48;68.71
5879;BME280;2965;42.640;23.370;2023-11-19T12:08:11;94562.50;;;9.01;68.61
5879;BME280;2965;42.640;23.370;2023-11-19T12:10:48;94557.53;;;8.92;69.09
5879;BME280;2965;42.640;23.370;2023-11-19T12:13:15;94554.00;;;8.76;65.46
5879;BME280;2965;42.640;23.370;2023-11-19T12:18:24;94532.94;;;9.32;63.83
5879;BME280;2965;42.640;23.370;2023-11-19T12:20:51;94529.91;;;9.81;64.09
5879;BME280;2965;42.640;23.370;2023-11-19T12:23:17;94527.78;;;9.84;62.00
5879;BME280;2965;42.640;23.370;2023-11-19T12:25:42;94527.91;;;9.30;63.41
5879;BME280;2965;42.640;23.370;2023-11-19T12:28:14;94522.91;;;9.44;61.52
5879;BME280;2965;42.640;23.370;2023-11-19T12:30:42;94526.44;;;9.51;64.66
5879;BME280;2965;42.640;23.370;2023-11-19T12:33:09;94524.50;;;9.68;66.47
5879;BME280;2965;42.640;23.370;2023-11-19T12:35:42;94513.13;;;10.28;63.75
5879;BME280;2965;42.640;23.370;2023-11-19T12:38:08;94510.00;;;9.65;61.49
5879;BME280;2965;42.640;23.370;2023-11-19T12:40:34;94505.47;;;10.77;68.68
5879;BME280;2965;42.640;23.370;2023-11-19T12:42:59;94506.28;;;9.59;61.23
5879;BME280;2965;42.640;23.370;2023-11-19T12:45:35;94509.31;;;10.01;63.30
5879;BME280;2965;42.640;23.370;2023-11-19T12:48:05;94498.13;;;10.22;60.52
5879;BME280;2965;42.640;23.370;2023-11-19T12:50:50;94496.59;;;10.57;58.46
5879;BME280;2965;42.640;23.370;2023-11-19T12:53:17;94498.72;;;10.32;60.60
5879;BME280;2965;42.640;23.370;2023-11-19T12:55:43;94494.63;;;9.47;62.04
5879;BME280;2965;42.640;23.370;2023-11-19T12:58:09;94504.31;;;9.01;63.89
5879;BME280;2965;42.640;23.370;2023-11-19T13:00:34;94499.94;;;9.16;65.56
5879;BME280;2965;42.640;23.370;2023-11-19T13:03:00;94499.22;;;10.13;64.58
5879;BME280;2965;42.640;23.370;2023-11-19T13:05:30;94503.00;;;9.95;62.66
5879;BME280;2965;42.640;23.370;2023-11-19T13:10:29;94483.97;;;9.57;62.72
5879;BME280;2965;42.640;23.370;2023-11-19T13:13:05;94493.69;;;9.63;63.70
5879;BME280;2965;42.640;23.370;2023-11-19T13:15:32;94501.56;;;10.07;62.34
5879;BME280;2965;42.640;23.370;2023-11-19T13:17:59;94496.97;;;9.95;61.99
5879;BME280;2965;42.640;23.370;2023-11-19T13:20:24;94492.00;;;9.70;62.76
5879;BME280;2965;42.640;23.370;2023-11-19T13:23:01;94485.88;;;9.25;63.10
5879;BME280;2965;42.640;23.370;2023-11-19T13:25:27;94481.00;;;9.22;64.40
5879;BME280;2965;42.640;23.370;2023-11-19T13:27:54;94472.94;;;9.47;63.03
5879;BME280;2965;42.640;23.370;2023-11-19T13:30:20;94468.84;;;9.67;63.50
5879;BME280;2965;42.640;23.370;2023-11-19T13:32:47;94460.31;;;9.88;61.64
5879;BME280;2965;42.640;23.370;2023-11-19T13:35:13;94454.38;;;9.42;62.79
5879;BME280;2965;42.640;23.370;2023-11-19T13:37:39;94463.63;;;9.67;62.86
5879;BME280;2965;42.640;23.370;2023-11-19T13:40:06;94472.59;;;9.50;63.00
5879;BME280;2965;42.640;23.370;2023-11-19T13:42:38;94471.94;;;9.10;62.56
5879;BME280;2965;42.640;23.370;2023-11-19T13:45:08;94476.84;;;9.66;62.71
5879;BME280;2965;42.640;23.370;2023-11-19T13:47:44;94479.44;;;9.51;61.34
5879;BME280;2965;42.640;23.370;2023-11-19T13:50:12;94486.31;;;9.06;63.51
5879;BME280;2965;42.640;23.370;2023-11-19T13:52:40;94488.38;;;9.33;63.73
5879;BME280;2965;42.640;23.370;2023-11-19T13:55:07;94487.59;;;9.33;62.87
5879;BME280;2965;42.640;23.370;2023-11-19T13:57:34;94486.63;;;8.88;60.51
5879;BME280;2965;42.640;23.370;2023-11-19T14:00:04;94481.22;;;8.90;59.52
5879;BME280;2965;42.640;23.370;2023-11-19T14:02:32;94483.81;;;8.90;61.41
5879;BME280;2965;42.640;23.370;2023-11-19T14:04:57;94489.34;;;8.32;64.52
5879;BME280;2965;42.640;23.370;2023-11-19T14:07:23;94481.34;;;7.95;66.98
5879;BME280;2965;42.640;23.370;2023-11-19T14:09:48;94489.16;;;7.87;67.94
5879;BME280;2965;42.640;23.370;2023-11-19T14:12:13;94494.75;;;7.67;68.81
5879;BME280;2965;42.640;23.370;2023-11-19T14:14:40;94497.88;;;7.30;69.87
5879;BME280;2965;42.640;23.370;2023-11-19T14:17:07;94495.78;;;7.25;72.09
5879;BME280;2965;42.640;23.370;2023-11-19T14:19:33;94511.00;;;7.77;72.35
5879;BME280;2965;42.640;23.370;2023-11-19T14:21:59;94497.94;;;8.02;70.54
5879;BME280;2965;42.640;23.370;2023-11-19T14:24:25;94514.22;;;7.88;68.62
5879;BME280;2965;42.640;23.370;2023-11-19T14:26:51;94523.41;;;7.43;69.56
5879;BME280;2965;42.640;23.370;2023-11-19T14:29:18;94523.44;;;7.26;68.01
5879;BME280;2965;42.640;23.370;2023-11-19T14:31:45;94525.03;;;7.11;70.14
5879;BME280;2965;42.640;23.370;2023-11-19T14:34:11;94518.56;;;7.31;69.44
5879;BME280;2965;42.640;23.370;2023-11-19T14:36:36;94510.41;;;7.34;69.85
5879;BME280;2965;42.640;23.370;2023-11-19T14:39:02;94513.97;;;7.01;72.18
5879;BME280;2965;42.640;23.370;2023-11-19T14:41:29;94512.53;;;7.23;73.17
5879;BME280;2965;42.640;23.370;2023-11-19T14:43:54;94501.91;;;6.75;74.63
5879;BME280;2965;42.640;23.370;2023-11-19T14:46:19;94509.06;;;6.65;76.50
5879;BME280;2965;42.640;23.370;2023-11-19T14:48:48;94509.63;;;6.35;80.59
5879;BME280;2965;42.640;23.370;2023-11-19T14:51:13;94514.72;;;6.10;79.71
5879;BME280;2965;42.640;23.370;2023-11-19T14:53:39;94524.50;;;6.16;81.30
5879;BME280;2965;42.640;23.370;2023-11-19T14:56:04;94529.34;;;6.19;82.78
5879;BME280;2965;42.640;23.370;2023-11-19T14:58:32;94518.06;;;6.37;82.29
5879;BME280;2965;42.640;23.370;2023-11-19T15:00:57;94515.81;;;6.50;80.65
5879;BME280;2965;42.640;23.370;2023-11-19T15:03:23;94508.06;;;6.58;80.65
5879;BME280;2965;42.640;23.370;2023-11-19T15:06:00;94513.59;;;6.71;79.93
5879;BME280;2965;42.640;23.370;2023-11-19T15:08:32;94513.59;;;6.71;79.23
5879;BME280;2965;42.640;23.370;2023-11-19T15:10:59;94518.19;;;6.77;79.36
5879;BME280;2965;42.640;23.370;2023-11-19T15:13:39;94532.28;;;6.67;79.38
5879;BME280;2965;42.640;23.370;2023-11-19T15:16:07;94539.56;;;6.63;80.09
5879;BME280;2965;42.640;23.370;2023-11-19T15:18:36;94561.06;;;6.73;79.97
5879;BME280;2965;42.640;23.370;2023-11-19T15:21:01;94543.81;;;6.64;79.64
5879;BME280;2965;42.640;23.370;2023-11-19T15:23:28;94554.25;;;6.30;82.68
5879;BME280;2965;42.640;23.370;2023-11-19T15:25:55;94549.84;;;6.22;82.74
5879;BME280;2965;42.640;23.370;2023-11-19T15:28:20;94550.81;;;6.21;82.91
5879;BME280;2965;42.640;23.370;2023-11-19T15:30:47;94549.84;;;6.22;83.55
5879;BME280;2965;42.640;23.370;2023-11-19T15:33:13;94545.91;;;6.18;83.84
5879;BME280;2965;42.640;23.370;2023-11-19T15:35:40;94545.38;;;6.06;84.17
5879;BME280;2965;42.640;23.370;2023-11-19T15:38:06;94541.94;;;5.98;85.64
5879;BME280;2965;42.640;23.370;2023-11-19T15:40:34;94530.72;;;5.71;85.78
5879;BME280;2965;42.640;23.370;2023-11-19T15:43:00;94526.75;;;5.59;87.09
5879;BME280;2965;42.640;23.370;2023-11-19T15:45:27;94526.53;;;5.78;86.10
5879;BME280;2965;42.640;23.370;2023-11-19T15:47:52;94526.94;;;5.92;85.09
5879;BME280;2965;42.640;23.370;2023-11-19T15:50:18;94524.34;;;5.92;85.27
5879;BME280;2965;42.640;23.370;2023-11-19T15:52:43;94525.94;;;5.85;87.19
5879;BME280;2965;42.640;23.370;2023-11-19T15:55:10;94529.34;;;5.59;92.29
5879;BME280;2965;42.640;23.370;2023-11-19T15:57:37;94537.34;;;5.04;96.38
5879;BME280;2965;42.640;23.370;2023-11-19T16:00:03;94527.84;;;5.13;94.39
5879;BME280;2965;42.640;23.370;2023-11-19T16:02:29;94525.78;;;5.16;96.21
5879;BME280;2965;42.640;23.370;2023-11-19T16:04:55;94532.59;;;4.99;100.00
5879;BME280;2965;42.640;23.370;2023-11-19T16:07:20;94533.47;;;5.08;100.00
5879;BME280;2965;42.640;23.370;2023-11-19T16:09:46;94536.00;;;4.82;100.00
5879;BME280;2965;42.640;23.370;2023-11-19T16:12:13;94526.84;;;4.88;100.00
5879;BME280;2965;42.640;23.370;2023-11-19T16:14:38;94544.53;;;4.74;100.00
5879;BME280;2965;42.640;23.370;2023-11-19T16:17:06;94551.72;;;4.80;100.00
5879;BME280;2965;42.640;23.370;2023-11-19T16:19:31;94542.16;;;4.81;100.00
5879;BME280;2965;42.640;23.370;2023-11-19T16:21:59;94539.47;;;4.91;100.00
5879;BME280;2965;42.640;23.370;2023-11-19T16:24:35;94542.84;;;5.01;100.00
5879;BME280;2965;42.640;23.370;2023-11-19T16:27:00;94533.84;;;5.13;100.00
5879;BME280;2965;42.640;23.370;2023-11-19T16:29:26;94531.31;;;5.21;100.00
5879;BME280;2965;42.640;23.370;2023-11-19T16:31:51;94525.56;;;5.10;100.00
5879;BME280;2965;42.640;23.370;2023-11-19T16:34:17;94515.41;;;5.16;100.00
5879;BME280;2965;42.640;23.370;2023-11-19T16:36:42;94495.34;;;5.00;100.00
5879;BME280;2965;42.640;23.370;2023-11-19T16:39:09;94496.06;;;5.11;100.00
5879;BME280;2965;42.640;23.370;2023-11-19T16:41:35;94493.38;;;5.20;100.00
5879;BME280;2965;42.640;23.370;2023-11-19T16:44:03;94510.13;;;5.26;100.00
5879;BME280;2965;42.640;23.370;2023-11-19T16:46:30;94517.16;;;5.34;100.00
5879;BME280;2965;42.640;23.370;2023-11-19T16:48:56;94515.41;;;5.16;100.00
5879;BME280;2965;42.640;23.370;2023-11-19T16:51:21;94519.25;;;5.12;100.00
5879;BME280;2965;42.640;23.370;2023-11-19T16:53:47;94523.25;;;5.24;100.00
5879;BME280;2965;42.640;23.370;2023-11-19T16:56:14;94533.13;;;5.03;100.00
5879;BME280;2965;42.640;23.370;2023-11-19T16:58:40;94543.56;;;4.93;100.00
5879;BME280;2965;42.640;23.370;2023-11-19T17:01:12;94540.28;;;4.73;100.00
5879;BME280;2965;42.640;23.370;2023-11-19T17:03:39;94548.75;;;4.30;100.00
5879;BME280;2965;42.640;23.370;2023-11-19T17:06:05;94546.47;;;4.45;100.00
5879;BME280;2965;42.640;23.370;2023-11-19T17:08:31;94547.72;;;4.13;100.00
5879;BME280;2965;42.640;23.370;2023-11-19T17:11:00;94551.47;;;4.28;100.00
5879;BME280;2965;42.640;23.370;2023-11-19T17:13:26;94545.41;;;4.38;100.00
5879;BME280;2965;42.640;23.370;2023-11-19T17:15:51;94541.09;;;4.56;100.00
5879;BME280;2965;42.640;23.370;2023-11-19T17:18:17;94548.50;;;4.69;100.00
5879;BME280;2965;42.640;23.370;2023-11-19T17:20:42;94552.81;;;4.78;100.00
5879;BME280;2965;42.640;23.370;2023-11-19T17:23:08;94531.34;;;4.86;100.00
5879;BME280;2965;42.640;23.370;2023-11-19T17:25:34;94531.84;;;5.07;100.00
5879;BME280;2965;42.640;23.370;2023-11-19T17:27:59;94533.28;;;5.01;100.00
5879;BME280;2965;42.640;23.370;2023-11-19T17:30:25;94528.44;;;5.06;100.00
5879;BME280;2965;42.640;23.370;2023-11-19T17:32:50;94531.25;;;5.13;100.00
5879;BME280;2965;42.640;23.370;2023-11-19T17:35:15;94528.00;;;5.11;100.00